sensor_id;sensor_type;location;lat;lon;timestamp;pressure;altitude;pressure_sealevel;temperature;humidity
35011;BME280;21205;37.378;127.098;2023-03-04T00:01:58;101294.25;;;22.70;35.96
35011;BME280;21205;37.378;127.098;2023-03-04T00:04:28;101304.31;;;22.71;36.11
35011;BME280;21205;37.378;127.098;2023-03-04T00:06:58;101309.09;;;22.71;36.10
35011;BME280;21205;37.378;127.098;2023-03-04T00:09:27;101279.47;;;22.57;36.13
35011;BME280;21205;37.378;127.098;2023-03-04T00:11:57;101301.16;;;22.73;35.63
35011;BME280;21205;37.378;127.098;2023-03-04T00:14:26;101308.38;;;22.74;35.75
35011;BME280;21205;37.378;127.098;2023-03-04T00:16:56;101309.66;;;22.76;35.39
35011;BME280;21205;37.378;127.098;2023-03-04T00:19:26;101303.88;;;22.81;35.50
35011;BME280;21205;37.378;127.098;2023-03-04T00:21:56;101314.75;;;22.83;35.91
35011;BME280;21205;37.378;127.098;2023-03-04T00:24:26;101315.09;;;22.81;36.99
35011;BME280;21205;37.378;127.098;2023-03-04T00:26:55;101317.09;;;22.81;36.34
35011;BME280;21205;37.378;127.098;2023-03-04T00:29:25;101292.41;;;22.62;36.48
35011;BME280;21205;37.378;127.098;2023-03-04T00:31:55;101314.28;;;22.81;36.51
35011;BME280;21205;37.378;127.098;2023-03-04T00:34:25;101313.44;;;22.80;36.24
35011;BME280;21205;37.378;127.098;2023-03-04T00:36:54;101302.69;;;22.70;36.02
35011;BME280;21205;37.378;127.098;2023-03-04T00:39:29;101325.25;;;22.86;35.96
35011;BME280;21205;37.378;127.098;2023-03-04T00:41:59;101327.34;;;22.89;35.62
35011;BME280;21205;37.378;127.098;2023-03-04T00:44:28;101329.44;;;22.92;35.99
35011;BME280;21205;37.378;127.098;2023-03-04T00:46:58;101320.09;;;22.88;35.80
35011;BME280;21205;37.378;127.098;2023-03-04T00:49:29;101327.00;;;22.90;35.82
35011;BME280;21205;37.378;127.098;2023-03-04T00:51:59;101335.50;;;22.94;35.88
35011;BME280;21205;37.378;127.098;2023-03-04T00:54:29;101328.38;;;22.96;35.72
35011;BME280;21205;37.378;127.098;2023-03-04T00:56:58;101326.75;;;22.95;35.78
35011;BME280;21205;37.378;127.098;2023-03-04T00:59:28;101332.47;;;22.99;35.72
35011;BME280;21205;37.378;127.098;2023-03-04T01:01:58;101331.75;;;23.02;35.42
35011;BME280;21205;37.378;127.098;2023-03-04T01:04:28;101330.22;;;23.05;35.43
35011;BME280;21205;37.378;127.098;2023-03-04T01:06:57;101331.03;;;23.05;35.31
35011;BME280;21205;37.378;127.098;2023-03-04T01:09:27;101327.19;;;23.10;35.29
35011;BME280;21205;37.378;127.098;2023-03-04T01:11:57;101332.44;;;23.11;35.34
35011;BME280;21205;37.378;127.098;2023-03-04T01:14:27;101321.91;;;23.08;35.33
35011;BME280;21205;37.378;127.098;2023-03-04T01:16:56;101328.94;;;23.14;35.21
35011;BME280;21205;37.378;127.098;2023-03-04T01:19:26;101331.50;;;23.19;35.40
35011;BME280;21205;37.378;127.098;2023-03-04T01:21:56;101329.25;;;23.25;35.12
35011;BME280;21205;37.378;127.098;2023-03-04T01:24:25;101330.63;;;23.31;35.34
35011;BME280;21205;37.378;127.098;2023-03-04T01:26:55;101324.56;;;23.29;35.40
35011;BME280;21205;37.378;127.098;2023-03-04T01:29:25;101318.38;;;23.23;35.49
35011;BME280;21205;37.378;127.098;2023-03-04T01:31:56;101316.19;;;23.17;35.97
35011;BME280;21205;37.378;127.098;2023-03-04T01:34:26;101333.44;;;23.31;35.49
35011;BME280;21205;37.378;127.098;2023-03-04T01:36:55;101335.06;;;23.32;35.35
35011;BME280;21205;37.378;127.098;2023-03-04T01:39:25;101330.84;;;23.38;35.77
35011;BME280;21205;37.378;127.098;2023-03-04T01:41:55;101322.88;;;23.40;35.69
35011;BME280;21205;37.378;127.098;2023-03-04T01:44:25;101322.38;;;23.50;35.70
35011;BME280;21205;37.378;127.098;2023-03-04T01:46:55;101320.84;;;23.53;35.49
35011;BME280;21205;37.378;127.098;2023-03-04T01:49:25;101314.88;;;23.54;36.39
35011;BME280;21205;37.378;127.098;2023-03-04T01:51:54;101321.44;;;23.58;38.06
35011;BME280;21205;37.378;127.098;2023-03-04T01:54:24;101309.50;;;23.62;37.92
35011;BME280;21205;37.378;127.098;2023-03-04T01:56:54;101320.91;;;23.69;39.17
35011;BME280;21205;37.378;127.098;2023-03-04T01:59:30;101316.06;;;23.81;41.10
35011;BME280;21205;37.378;127.098;2023-03-04T02:02:00;101320.88;;;23.81;43.43
35011;BME280;21205;37.378;127.098;2023-03-04T02:04:32;101323.59;;;23.77;44.74
35011;BME280;21205;37.378;127.098;2023-03-04T02:07:03;101319.03;;;23.73;49.54
35011;BME280;21205;37.378;127.098;2023-03-04T02:09:33;101318.91;;;23.69;54.67
35011;BME280;21205;37.378;127.098;2023-03-04T02:12:04;101320.81;;;23.65;57.99
35011;BME280;21205;37.378;127.098;2023-03-04T02:14:33;101318.91;;;23.69;55.49
35011;BME280;21205;37.378;127.098;2023-03-04T02:17:09;101318.69;;;23.74;51.82
35011;BME280;21205;37.378;127.098;2023-03-04T02:22:19;101322.88;;;23.80;51.07
35011;BME280;21205;37.378;127.098;2023-03-04T02:24:53;101317.25;;;23.80;50.08
35011;BME280;21205;37.378;127.098;2023-03-04T02:27:23;101310.81;;;23.80;48.82
35011;BME280;21205;37.378;127.098;2023-03-04T02:29:53;101317.69;;;23.82;48.00
35011;BME280;21205;37.378;127.098;2023-03-04T02:32:22;101313.72;;;23.83;47.48
35011;BME280;21205;37.378;127.098;2023-03-04T02:34:52;101306.94;;;23.84;47.30
35011;BME280;21205;37.378;127.098;2023-03-04T02:37:22;101306.47;;;23.82;46.68
35011;BME280;21205;37.378;127.098;2023-03-04T02:39:52;101307.75;;;23.85;46.50
35011;BME280;21205;37.378;127.098;2023-03-04T02:42:21;101303.75;;;23.86;45.76
35011;BME280;21205;37.378;127.098;2023-03-04T02:44:59;101307.03;;;23.88;45.19
35011;BME280;21205;37.378;127.098;2023-03-04T02:47:29;101301.41;;;23.88;44.97
35011;BME280;21205;37.378;127.098;2023-03-04T02:49:59;101297.41;;;23.89;44.94
35011;BME280;21205;37.378;127.098;2023-03-04T02:52:29;101298.13;;;23.86;44.53
35011;BME280;21205;37.378;127.098;2023-03-04T02:54:58;101288.63;;;23.90;43.75
35011;BME280;21205;37.378;127.098;2023-03-04T02:57:28;101282.19;;;23.90;43.67
35011;BME280;21205;37.378;127.098;2023-03-04T02:59:58;101291.81;;;23.89;43.29
35011;BME280;21205;37.378;127.098;2023-03-04T03:02:27;101284.63;;;23.92;42.85
35011;BME280;21205;37.378;127.098;2023-03-04T03:04:57;101286.34;;;23.96;42.51
35011;BME280;21205;37.378;127.098;2023-03-04T03:07:27;101281.19;;;23.98;41.80
35011;BME280;21205;37.378;127.098;2023-03-04T03:09:56;101285.63;;;23.99;41.93
35011;BME280;21205;37.378;127.098;2023-03-04T03:12:26;101277.75;;;24.05;41.92
35011;BME280;21205;37.378;127.098;2023-03-04T03:14:56;101271.44;;;24.08;41.30
35011;BME280;21205;37.378;127.098;2023-03-04T03:17:25;101271.78;;;24.22;41.56
35011;BME280;21205;37.378;127.098;2023-03-04T03:19:55;101263.19;;;24.31;41.25
35011;BME280;21205;37.378;127.098;2023-03-04T03:22:25;101260.81;;;24.33;40.61
35011;BME280;21205;37.378;127.098;2023-03-04T03:24:54;101259.28;;;24.35;40.65
35011;BME280;21205;37.378;127.098;2023-03-04T03:27:24;101251.28;;;24.37;40.53
35011;BME280;21205;37.378;127.098;2023-03-04T03:29:54;101255.03;;;24.41;40.58
35011;BME280;21205;37.378;127.098;2023-03-04T03:32:24;101246.25;;;24.43;40.78
35011;BME280;21205;37.378;127.098;2023-03-04T03:34:53;101249.66;;;24.52;40.33
35011;BME280;21205;37.378;127.098;2023-03-04T03:37:23;101241.06;;;24.45;40.08
35011;BME280;21205;37.378;127.098;2023-03-04T03:39:53;101229.16;;;24.51;39.83
35011;BME280;21205;37.378;127.098;2023-03-04T03:42:22;101229.16;;;24.51;39.50
35011;BME280;21205;37.378;127.098;2023-03-04T03:44:52;101222.34;;;24.52;39.55
35011;BME280;21205;37.378;127.098;2023-03-04T03:47:23;101223.69;;;24.59;39.34
35011;BME280;21205;37.378;127.098;2023-03-04T03:49:53;101225.41;;;24.63;39.39
35011;BME280;21205;37.378;127.098;2023-03-04T03:52:23;101218.97;;;24.63;39.27
35011;BME280;21205;37.378;127.098;2023-03-04T03:54:52;101215.72;;;24.61;39.39
35011;BME280;21205;37.378;127.098;2023-03-04T03:57:22;101212.59;;;24.66;39.04
35011;BME280;21205;37.378;127.098;2023-03-04T03:59:52;101207.50;;;24.71;39.27
35011;BME280;21205;37.378;127.098;2023-03-04T04:02:22;101197.44;;;24.70;38.89
35011;BME280;21205;37.378;127.098;2023-03-04T04:04:52;101198.44;;;24.78;38.71
35011;BME280;21205;37.378;127.098;2023-03-04T04:07:22;101196.50;;;24.82;38.57
35011;BME280;21205;37.378;127.098;2023-03-04T04:09:51;101192.13;;;24.85;38.71
35011;BME280;21205;37.378;127.098;2023-03-04T04:12:21;101185.41;;;24.89;38.32
35011;BME280;21205;37.378;127.098;2023-03-04T04:14:51;101184.22;;;24.90;38.15
35011;BME280;21205;37.378;127.098;2023-03-04T04:17:20;101176.28;;;24.96;38.05
35011;BME280;21205;37.378;127.098;2023-03-04T04:19:50;101173.91;;;24.98;38.21
35011;BME280;21205;37.378;127.098;2023-03-04T04:22:20;101162.66;;;24.98;37.83
35011;BME280;21205;37.378;127.098;2023-03-04T04:24:50;101160.75;;;25.02;37.65
35011;BME280;21205;37.378;127.098;2023-03-04T04:27:20;101152.41;;;25.05;37.77
35011;BME280;21205;37.378;127.098;2023-03-04T04:29:50;101155.75;;;25.11;37.49
35011;BME280;21205;37.378;127.098;2023-03-04T04:32:20;101149.81;;;25.16;37.05
35011;BME280;21205;37.378;127.098;2023-03-04T04:34:49;101151.81;;;25.16;36.85
35011;BME280;21205;37.378;127.098;2023-03-04T04:37:19;101138.94;;;25.15;37.02
35011;BME280;21205;37.378;127.098;2023-03-04T04:39:49;101131.72;;;25.17;36.84
35011;BME280;21205;37.378;127.098;2023-03-04T04:42:20;101128.59;;;25.22;36.91
35011;BME280;21205;37.378;127.098;2023-03-04T04:44:50;101127.78;;;25.22;36.86
35011;BME280;21205;37.378;127.098;2023-03-04T04:47:20;101116.97;;;25.24;37.18
35011;BME280;21205;37.378;127.098;2023-03-04T04:49:50;101125.03;;;25.25;36.50
35011;BME280;21205;37.378;127.098;2023-03-04T04:52:19;101106.84;;;25.19;36.99
35011;BME280;21205;37.378;127.098;2023-03-04T04:54:49;101117.47;;;25.29;36.53
35011;BME280;21205;37.378;127.098;2023-03-04T04:57:19;101115.16;;;25.35;36.68
35011;BME280;21205;37.378;127.098;2023-03-04T04:59:48;101108.00;;;25.37;36.28
35011;BME280;21205;37.378;127.098;2023-03-04T05:02:18;101107.25;;;25.40;36.43
35011;BME280;21205;37.378;127.098;2023-03-04T05:04:48;101104.09;;;25.46;36.51
35011;BME280;21205;37.378;127.098;2023-03-04T05:07:18;101096.84;;;25.44;35.85
35011;BME280;21205;37.378;127.098;2023-03-04T05:09:48;101090.41;;;25.44;36.01
35011;BME280;21205;37.378;127.098;2023-03-04T05:12:18;101092.97;;;25.53;35.84
35011;BME280;21205;37.378;127.098;2023-03-04T05:14:47;101098.66;;;25.56;35.75
35011;BME280;21205;37.378;127.098;2023-03-04T05:17:17;101093.44;;;25.58;36.03
35011;BME280;21205;37.378;127.098;2023-03-04T05:19:47;101084.19;;;25.58;36.01
35011;BME280;21205;37.378;127.098;2023-03-04T05:22:16;101083.00;;;25.59;35.36
35011;BME280;21205;37.378;127.098;2023-03-04T05:24:46;101085.13;;;25.65;35.78
35011;BME280;21205;37.378;127.098;2023-03-04T05:27:16;101078.84;;;25.72;35.44
35011;BME280;21205;37.378;127.098;2023-03-04T05:29:45;101077.63;;;25.73;35.39
35011;BME280;21205;37.378;127.098;2023-03-04T05:32:15;101076.13;;;25.79;35.26
35011;BME280;21205;37.378;127.098;2023-03-04T05:34:45;101074.13;;;25.80;35.02
35011;BME280;21205;37.378;127.098;2023-03-04T05:37:14;101076.56;;;25.81;35.08
35011;BME280;21205;37.378;127.098;2023-03-04T05:39:44;101076.59;;;25.85;34.68
35011;BME280;21205;37.378;127.098;2023-03-04T05:42:14;101072.59;;;25.86;34.99
35011;BME280;21205;37.378;127.098;2023-03-04T05:44:43;101066.19;;;25.89;34.62
35011;BME280;21205;37.378;127.098;2023-03-04T05:47:13;101058.88;;;25.84;34.65
35011;BME280;21205;37.378;127.098;2023-03-04T05:49:42;101069.13;;;25.96;34.58
35011;BME280;21205;37.378;127.098;2023-03-04T05:52:12;101067.44;;;25.91;34.56
35011;BME280;21205;37.378;127.098;2023-03-04T05:54:42;101066.25;;;25.92;34.74
35011;BME280;21205;37.378;127.098;2023-03-04T05:57:11;101065.88;;;25.94;34.42
35011;BME280;21205;37.378;127.098;2023-03-04T05:59:41;101064.34;;;26.00;34.47
35011;BME280;21205;37.378;127.098;2023-03-04T06:02:11;101066.03;;;26.04;35.00
35011;BME280;21205;37.378;127.098;2023-03-04T06:04:40;101070.91;;;26.08;35.64
35011;BME280;21205;37.378;127.098;2023-03-04T06:07:10;101066.47;;;26.07;35.27
35011;BME280;21205;37.378;127.098;2023-03-04T06:09:40;101069.38;;;26.14;35.17
35011;BME280;21205;37.378;127.098;2023-03-04T06:12:11;101068.19;;;26.15;35.31
35011;BME280;21205;37.378;127.098;2023-03-04T06:14:41;101062.56;;;26.15;35.31
35011;BME280;21205;37.378;127.098;2023-03-04T06:17:11;101056.50;;;26.13;35.21
35011;BME280;21205;37.378;127.098;2023-03-04T06:19:41;101058.19;;;26.21;35.27
35011;BME280;21205;37.378;127.098;2023-03-04T06:22:11;101063.50;;;26.26;35.15
35011;BME280;21205;37.378;127.098;2023-03-04T06:24:40;101056.28;;;26.28;35.08
35011;BME280;21205;37.378;127.098;2023-03-04T06:27:10;101061.97;;;26.32;35.06
35011;BME280;21205;37.378;127.098;2023-03-04T06:29:41;101061.00;;;26.47;35.24
35011;BME280;21205;37.378;127.098;2023-03-04T06:32:11;101067.41;;;26.44;35.06
35011;BME280;21205;37.378;127.098;2023-03-04T06:34:41;101053.78;;;26.50;35.36
35011;BME280;21205;37.378;127.098;2023-03-04T06:37:10;101059.84;;;26.52;35.35
35011;BME280;21205;37.378;127.098;2023-03-04T06:39:40;101056.59;;;26.50;35.18
35011;BME280;21205;37.378;127.098;2023-03-04T06:42:10;101053.81;;;26.53;35.27
35011;BME280;21205;37.378;127.098;2023-03-04T06:44:39;101054.16;;;26.48;35.07
35011;BME280;21205;37.378;127.098;2023-03-04T06:47:09;101054.59;;;26.50;35.01
35011;BME280;21205;37.378;127.098;2023-03-04T06:49:39;101049.28;;;26.45;35.12
35011;BME280;21205;37.378;127.098;2023-03-04T06:52:09;101048.09;;;26.46;35.24
35011;BME280;21205;37.378;127.098;2023-03-04T06:54:40;101048.88;;;26.43;34.98
35011;BME280;21205;37.378;127.098;2023-03-04T06:57:10;101052.09;;;26.45;34.96
35011;BME280;21205;37.378;127.098;2023-03-04T06:59:41;101044.41;;;26.42;35.48
35011;BME280;21205;37.378;127.098;2023-03-04T07:02:11;101045.19;;;26.39;35.25
35011;BME280;21205;37.378;127.098;2023-03-04T07:04:41;101035.88;;;26.35;35.28
35011;BME280;21205;37.378;127.098;2023-03-04T07:07:11;101043.53;;;26.34;35.14
35011;BME280;21205;37.378;127.098;2023-03-04T07:09:41;101039.78;;;26.30;34.79
35011;BME280;21205;37.378;127.098;2023-03-04T07:12:11;101040.22;;;26.32;34.82
35011;BME280;21205;37.378;127.098;2023-03-04T07:14:43;101033.78;;;26.32;35.01
35011;BME280;21205;37.378;127.098;2023-03-04T07:17:13;101034.59;;;26.32;35.10
35011;BME280;21205;37.378;127.098;2023-03-04T07:19:43;101032.16;;;26.31;34.82
35011;BME280;21205;37.378;127.098;2023-03-04T07:22:12;101032.53;;;26.29;34.79
35011;BME280;21205;37.378;127.098;2023-03-04T07:24:42;101035.78;;;26.31;34.61
35011;BME280;21205;37.378;127.098;2023-03-04T07:27:12;101029.72;;;26.29;34.97
35011;BME280;21205;37.378;127.098;2023-03-04T07:29:41;101031.34;;;26.30;34.96
35011;BME280;21205;37.378;127.098;2023-03-04T07:32:11;101033.34;;;26.30;34.96
35011;BME280;21205;37.378;127.098;2023-03-04T07:34:41;101038.97;;;26.30;34.65
35011;BME280;21205;37.378;127.098;2023-03-04T07:37:11;101041.00;;;26.29;35.06
35011;BME280;21205;37.378;127.098;2023-03-04T07:39:40;101035.34;;;26.29;34.84
35011;BME280;21205;37.378;127.098;2023-03-04T07:42:10;101042.63;;;26.30;34.58
35011;BME280;21205;37.378;127.098;2023-03-04T07:44:39;101038.56;;;26.28;34.64
35011;BME280;21205;37.378;127.098;2023-03-04T07:47:09;101048.63;;;26.29;34.66
35011;BME280;21205;37.378;127.098;2023-03-04T07:49:39;101043.78;;;26.26;34.87
35011;BME280;21205;37.378;127.098;2023-03-04T07:52:08;101043.78;;;26.26;34.88
35011;BME280;21205;37.378;127.098;2023-03-04T07:54:38;101039.31;;;26.25;34.47
35011;BME280;21205;37.378;127.098;2023-03-04T07:57:08;101038.13;;;26.26;34.63
35011;BME280;21205;37.378;127.098;2023-03-04T07:59:37;101045.78;;;26.25;34.42
35011;BME280;21205;37.378;127.098;2023-03-04T08:02:08;101038.47;;;26.21;34.90
35011;BME280;21205;37.378;127.098;2023-03-04T08:04:38;101041.72;;;26.23;34.50
35011;BME280;21205;37.378;127.098;2023-03-04T08:07:07;101040.06;;;26.18;34.54
35011;BME280;21205;37.378;127.098;2023-03-04T08:09:37;101044.88;;;26.18;34.55
35011;BME280;21205;37.378;127.098;2023-03-04T08:12:07;101041.63;;;26.16;34.55
35011;BME280;21205;37.378;127.098;2023-03-04T08:14:37;101049.66;;;26.14;34.62
35011;BME280;21205;37.378;127.098;2023-03-04T08:17:06;101045.66;;;26.15;34.72
35011;BME280;21205;37.378;127.098;2023-03-04T08:19:38;101046.44;;;26.15;34.86
35011;BME280;21205;37.378;127.098;2023-03-04T08:22:08;101050.09;;;26.16;34.76
35011;BME280;21205;37.378;127.098;2023-03-04T08:24:38;101050.84;;;26.13;34.60
35011;BME280;21205;37.378;127.098;2023-03-04T08:27:07;101055.28;;;26.14;34.64
35011;BME280;21205;37.378;127.098;2023-03-04T08:29:37;101064.50;;;26.11;34.64
35011;BME280;21205;37.378;127.098;2023-03-04T08:32:07;101060.88;;;26.10;34.56
35011;BME280;21205;37.378;127.098;2023-03-04T08:34:38;101055.63;;;26.09;34.45
35011;BME280;21205;37.378;127.098;2023-03-04T08:37:09;101065.28;;;26.08;34.26
35011;BME280;21205;37.378;127.098;2023-03-04T08:39:38;101059.22;;;26.05;34.63
35011;BME280;21205;37.378;127.098;2023-03-04T08:42:08;101070.47;;;26.05;34.63
35011;BME280;21205;37.378;127.098;2023-03-04T08:44:38;101066.91;;;26.09;34.57
35011;BME280;21205;37.378;127.098;2023-03-04T08:47:07;101079.38;;;26.08;34.55
35011;BME280;21205;37.378;127.098;2023-03-04T08:49:38;101076.88;;;26.02;35.01
35011;BME280;21205;37.378;127.098;2023-03-04T08:52:08;101084.06;;;26.00;35.13
35011;BME280;21205;37.378;127.098;2023-03-04T08:54:37;101078.81;;;25.98;35.06
35011;BME280;21205;37.378;127.098;2023-03-04T08:57:07;101086.06;;;25.99;35.30
35011;BME280;21205;37.378;127.098;2023-03-04T08:59:36;101088.06;;;25.99;35.53
35011;BME280;21205;37.378;127.098;2023-03-04T09:02:06;101084.78;;;25.93;35.50
35011;BME280;21205;37.378;127.098;2023-03-04T09:04:36;101103.31;;;25.94;36.33
35011;BME280;21205;37.378;127.098;2023-03-04T09:07:06;101103.31;;;25.94;36.84
35011;BME280;21205;37.378;127.098;2023-03-04T09:09:37;101109.69;;;25.91;37.00
35011;BME280;21205;37.378;127.098;2023-03-04T09:12:07;101104.06;;;25.91;37.23
35011;BME280;21205;37.378;127.098;2023-03-04T09:14:36;101102.44;;;25.90;36.92
35011;BME280;21205;37.378;127.098;2023-03-04T09:17:06;101103.97;;;25.84;37.38
35011;BME280;21205;37.378;127.098;2023-03-04T09:19:36;101104.34;;;25.83;37.35
35011;BME280;21205;37.378;127.098;2023-03-04T09:22:05;101117.56;;;25.79;37.37
35011;BME280;21205;37.378;127.098;2023-03-04T09:24:35;101119.13;;;25.76;37.50
35011;BME280;21205;37.378;127.098;2023-03-04T09:27:05;101123.13;;;25.75;37.43
35011;BME280;21205;37.378;127.098;2023-03-04T09:29:34;101121.47;;;25.70;36.87
35011;BME280;21205;37.378;127.098;2023-03-04T09:32:04;101114.56;;;25.68;37.20
35011;BME280;21205;37.378;127.098;2023-03-04T09:34:34;101107.38;;;25.70;37.30
35011;BME280;21205;37.378;127.098;2023-03-04T09:37:04;101112.41;;;25.61;37.20
35011;BME280;21205;37.378;127.098;2023-03-04T09:39:34;101110.72;;;25.57;37.25
35011;BME280;21205;37.378;127.098;2023-03-04T09:42:06;101117.97;;;25.58;37.66
35011;BME280;21205;37.378;127.098;2023-03-04T09:44:40;101116.28;;;25.53;37.72
35011;BME280;21205;37.378;127.098;2023-03-04T09:47:15;101124.75;;;25.53;38.38
35011;BME280;21205;37.378;127.098;2023-03-04T09:49:59;101130.75;;;25.52;39.16
35011;BME280;21205;37.378;127.098;2023-03-04T09:55:04;101139.50;;;25.47;38.75
35011;BME280;21205;37.378;127.098;2023-03-04T09:58:00;101146.81;;;25.51;39.30
35011;BME280;21205;37.378;127.098;2023-03-04T10:00:55;101147.59;;;25.48;38.76
35011;BME280;21205;37.378;127.098;2023-03-04T10:03:31;101147.41;;;25.37;38.71
35011;BME280;21205;37.378;127.098;2023-03-04T10:06:15;101150.44;;;25.29;38.80
35011;BME280;21205;37.378;127.098;2023-03-04T10:09:02;101145.63;;;25.29;38.55
35011;BME280;21205;37.378;127.098;2023-03-04T10:19:31;101163.88;;;25.16;38.43
35011;BME280;21205;37.378;127.098;2023-03-04T10:22:36;101167.88;;;25.15;38.17
35011;BME280;21205;37.378;127.098;2023-03-04T10:27:57;101171.31;;;25.05;38.33
35011;BME280;21205;37.378;127.098;2023-03-04T10:33:20;101167.19;;;25.02;37.85
35011;BME280;21205;37.378;127.098;2023-03-04T10:36:05;101176.81;;;25.01;37.52
35011;BME280;21205;37.378;127.098;2023-03-04T10:38:41;101174.66;;;24.95;37.48
35011;BME280;21205;37.378;127.098;2023-03-04T10:41:21;101173.84;;;24.94;37.42
35011;BME280;21205;37.378;127.098;2023-03-04T10:46:31;101180.16;;;24.88;37.86
35011;BME280;21205;37.378;127.098;2023-03-04T10:49:01;101180.88;;;24.85;37.26
35011;BME280;21205;37.378;127.098;2023-03-04T10:51:37;101180.44;;;24.82;37.42
35011;BME280;21205;37.378;127.098;2023-03-04T10:54:27;101180.44;;;24.82;37.47
35011;BME280;21205;37.378;127.098;2023-03-04T10:57:17;101186.38;;;24.77;37.31
35011;BME280;21205;37.378;127.098;2023-03-04T10:59:48;101187.00;;;24.71;37.38
35011;BME280;21205;37.378;127.098;2023-03-04T11:02:22;101163.31;;;24.52;37.07
35011;BME280;21205;37.378;127.098;2023-03-04T11:07:30;101190.94;;;24.66;37.01
35011;BME280;21205;37.378;127.098;2023-03-04T11:10:38;101195.66;;;24.62;37.07
35011;BME280;21205;37.378;127.098;2023-03-04T11:18:43;101202.75;;;24.56;36.74
35011;BME280;21205;37.378;127.098;2023-03-04T11:21:20;101157.13;;;24.28;36.77
35011;BME280;21205;37.378;127.098;2023-03-04T11:24:00;101205.13;;;24.54;36.56
35011;BME280;21205;37.378;127.098;2023-03-04T11:26:40;101210.75;;;24.54;37.08
35011;BME280;21205;37.378;127.098;2023-03-04T11:29:24;101213.13;;;24.52;36.36
35011;BME280;21205;37.378;127.098;2023-03-04T11:34:52;101211.03;;;24.49;36.31
35011;BME280;21205;37.378;127.098;2023-03-04T11:37:44;101212.59;;;24.46;36.36
35011;BME280;21205;37.378;127.098;2023-03-04T11:48:35;101210.44;;;24.40;36.47
35011;BME280;21205;37.378;127.098;2023-03-04T11:54:14;101208.16;;;24.30;36.06
35011;BME280;21205;37.378;127.098;2023-03-04T11:56:51;101213.13;;;24.36;36.21
35011;BME280;21205;37.378;127.098;2023-03-04T11:59:38;101210.97;;;24.30;36.07
35011;BME280;21205;37.378;127.098;2023-03-04T12:02:11;101230.72;;;24.33;36.23
35011;BME280;21205;37.378;127.098;2023-03-04T12:08:27;101227.47;;;24.31;35.84
35011;BME280;21205;37.378;127.098;2023-03-04T12:13:47;101233.47;;;24.30;35.76
35011;BME280;21205;37.378;127.098;2023-03-04T12:22:13;101237.44;;;24.29;35.71
35011;BME280;21205;37.378;127.098;2023-03-04T12:25:17;101237.44;;;24.29;35.98
35011;BME280;21205;37.378;127.098;2023-03-04T12:31:11;101252.69;;;24.28;35.56
35011;BME280;21205;37.378;127.098;2023-03-04T12:34:01;101247.75;;;24.25;35.85
35011;BME280;21205;37.378;127.098;2023-03-04T12:51:28;101272.16;;;24.20;36.02
35011;BME280;21205;37.378;127.098;2023-03-04T12:54:09;101270.97;;;24.21;35.88
35011;BME280;21205;37.378;127.098;2023-03-04T12:56:47;101266.88;;;24.19;35.54
35011;BME280;21205;37.378;127.098;2023-03-04T12:59:21;101272.06;;;24.17;35.79
35011;BME280;21205;37.378;127.098;2023-03-04T13:10:31;101270.78;;;24.14;35.69
35011;BME280;21205;37.378;127.098;2023-03-04T13:13:02;101266.63;;;24.08;35.92
35011;BME280;21205;37.378;127.098;2023-03-04T13:15:33;101275.97;;;24.12;35.28
35011;BME280;21205;37.378;127.098;2023-03-04T13:18:35;101276.41;;;24.14;35.41
35011;BME280;21205;37.378;127.098;2023-03-04T13:21:24;101269.16;;;24.13;35.63
35011;BME280;21205;37.378;127.098;2023-03-04T13:23:55;101273.16;;;24.12;35.14
35011;BME280;21205;37.378;127.098;2023-03-04T13:26:32;101278.41;;;24.14;35.22
35011;BME280;21205;37.378;127.098;2023-03-04T13:32:09;101268.25;;;24.09;35.74
35011;BME280;21205;37.378;127.098;2023-03-04T13:34:49;101269.81;;;24.07;35.37
35011;BME280;21205;37.378;127.098;2023-03-04T13:37:31;101270.63;;;24.07;35.54
35011;BME280;21205;37.378;127.098;2023-03-04T13:42:51;101269.69;;;24.03;35.25
35011;BME280;21205;37.378;127.098;2023-03-04T13:45:38;101272.03;;;24.01;35.48
35011;BME280;21205;37.378;127.098;2023-03-04T13:48:27;101265.69;;;24.04;35.68
35011;BME280;21205;37.378;127.098;2023-03-04T13:50:58;101264.88;;;24.04;35.33
35011;BME280;21205;37.378;127.098;2023-03-04T13:53:48;101264.06;;;24.03;35.62
35011;BME280;21205;37.378;127.098;2023-03-04T13:56:32;101268.88;;;24.03;35.70
35011;BME280;21205;37.378;127.098;2023-03-04T14:01:50;101258.00;;;24.01;35.06
35011;BME280;21205;37.378;127.098;2023-03-04T14:04:42;101257.63;;;24.03;35.48
35011;BME280;21205;37.378;127.098;2023-03-04T14:07:34;101252.31;;;24.13;35.59
35011;BME280;21205;37.378;127.098;2023-03-04T14:12:45;101253.03;;;24.10;35.66
35011;BME280;21205;37.378;127.098;2023-03-04T14:18:03;101263.34;;;24.06;36.66
35011;BME280;21205;37.378;127.098;2023-03-04T14:20:34;101258.72;;;23.98;36.64
35011;BME280;21205;37.378;127.098;2023-03-04T14:23:34;101264.78;;;24.00;36.62
35011;BME280;21205;37.378;127.098;2023-03-04T14:26:09;101261.63;;;24.02;37.06
35011;BME280;21205;37.378;127.098;2023-03-04T14:28:50;101256.00;;;24.02;36.70
35011;BME280;21205;37.378;127.098;2023-03-04T14:31:22;101256.00;;;24.02;36.97
35011;BME280;21205;37.378;127.098;2023-03-04T14:33:54;101255.91;;;23.98;36.77